sensor_id;sensor_type;location;lat;lon;timestamp;P1;durP1;ratioP1;P2;durP2;ratioP2
5454;SDS011;2750;49.050;9.250;2023-12-04T00:02:40;18.33;;;11.47;;
5454;SDS011;2750;49.050;9.250;2023-12-04T00:07:43;18.30;;;11.50;;
5454;SDS011;2750;49.050;9.250;2023-12-04T00:12:45;16.20;;;11.17;;
5454;SDS011;2750;49.050;9.250;2023-12-04T00:17:46;15.50;;;9.43;;
5454;SDS011;2750;49.050;9.250;2023-12-04T00:22:49;16.77;;;10.37;;
5454;SDS011;2750;49.050;9.250;2023-12-04T00:27:50;18.47;;;10.30;;
5454;SDS011;2750;49.050;9.250;2023-12-04T00:32:52;18.80;;;10.67;;
5454;SDS011;2750;49.050;9.250;2023-12-04T00:37:55;16.93;;;10.77;;
5454;SDS011;2750;49.050;9.250;2023-12-04T00:42:56;22.17;;;12.00;;
5454;SDS011;2750;49.050;9.250;2023-12-04T00:47:58;21.33;;;12.27;;
5454;SDS011;2750;49.050;9.250;2023-12-04T00:53:01;17.67;;;10.70;;
5454;SDS011;2750;49.050;9.250;2023-12-04T00:58:02;19.07;;;11.73;;
5454;SDS011;2750;49.050;9.250;2023-12-04T01:03:03;19.10;;;12.27;;
5454;SDS011;2750;49.050;9.250;2023-12-04T01:08:06;20.67;;;11.20;;
5454;SDS011;2750;49.050;9.250;2023-12-04T01:13:08;20.13;;;11.40;;
5454;SDS011;2750;49.050;9.250;2023-12-04T01:18:09;17.63;;;11.13;;
5454;SDS011;2750;49.050;9.250;2023-12-04T01:23:12;20.33;;;11.37;;
5454;SDS011;2750;49.050;9.250;2023-12-04T01:28:14;19.70;;;10.33;;
5454;SDS011;2750;49.050;9.250;2023-12-04T01:33:15;18.10;;;9.47;;
5454;SDS011;2750;49.050;9.250;2023-12-04T01:38:18;17.37;;;9.90;;
5454;SDS011;2750;49.050;9.250;2023-12-04T01:43:19;19.00;;;10.57;;
5454;SDS011;2750;49.050;9.250;2023-12-04T01:48:21;14.23;;;9.67;;
5454;SDS011;2750;49.050;9.250;2023-12-04T01:53:25;16.10;;;10.57;;
5454;SDS011;2750;49.050;9.250;2023-12-04T01:58:26;17.67;;;10.33;;
5454;SDS011;2750;49.050;9.250;2023-12-04T02:03:28;17.80;;;10.90;;
5454;SDS011;2750;49.050;9.250;2023-12-04T02:08:31;19.07;;;10.20;;
5454;SDS011;2750;49.050;9.250;2023-12-04T02:13:33;15.93;;;8.73;;
5454;SDS011;2750;49.050;9.250;2023-12-04T02:18:35;16.73;;;9.60;;
5454;SDS011;2750;49.050;9.250;2023-12-04T02:23:38;17.63;;;10.00;;
5454;SDS011;2750;49.050;9.250;2023-12-04T02:28:41;16.73;;;10.17;;
5454;SDS011;2750;49.050;9.250;2023-12-04T02:33:51;17.63;;;10.30;;
5454;SDS011;2750;49.050;9.250;2023-12-04T02:38:56;15.33;;;10.67;;
5454;SDS011;2750;49.050;9.250;2023-12-04T02:44:00;15.00;;;9.47;;
5454;SDS011;2750;49.050;9.250;2023-12-04T02:49:01;16.77;;;9.47;;
5454;SDS011;2750;49.050;9.250;2023-12-04T02:54:03;14.37;;;9.10;;
5454;SDS011;2750;49.050;9.250;2023-12-04T02:59:05;17.10;;;9.20;;
5454;SDS011;2750;49.050;9.250;2023-12-04T03:04:07;15.40;;;9.33;;
5454;SDS011;2750;49.050;9.250;2023-12-04T03:09:08;13.33;;;9.07;;
5454;SDS011;2750;49.050;9.250;2023-12-04T03:14:11;16.93;;;9.53;;
5454;SDS011;2750;49.050;9.250;2023-12-04T03:19:13;16.13;;;9.87;;
5454;SDS011;2750;49.050;9.250;2023-12-04T03:24:14;19.13;;;9.53;;
5454;SDS011;2750;49.050;9.250;2023-12-04T03:29:17;15.50;;;8.57;;
5454;SDS011;2750;49.050;9.250;2023-12-04T03:34:19;14.80;;;8.67;;
5454;SDS011;2750;49.050;9.250;2023-12-04T03:39:20;13.13;;;8.57;;
5454;SDS011;2750;49.050;9.250;2023-12-04T03:44:23;12.57;;;8.50;;
5454;SDS011;2750;49.050;9.250;2023-12-04T03:49:25;16.60;;;8.87;;
5454;SDS011;2750;49.050;9.250;2023-12-04T03:54:26;13.80;;;9.50;;
5454;SDS011;2750;49.050;9.250;2023-12-04T03:59:29;15.73;;;9.43;;
5454;SDS011;2750;49.050;9.250;2023-12-04T04:04:31;13.17;;;8.20;;
5454;SDS011;2750;49.050;9.250;2023-12-04T04:09:32;14.50;;;7.97;;
5454;SDS011;2750;49.050;9.250;2023-12-04T04:14:35;13.43;;;8.30;;
5454;SDS011;2750;49.050;9.250;2023-12-04T04:19:36;15.53;;;9.23;;
5454;SDS011;2750;49.050;9.250;2023-12-04T04:24:38;17.53;;;9.60;;
5454;SDS011;2750;49.050;9.250;2023-12-04T04:29:41;15.00;;;9.50;;
5454;SDS011;2750;49.050;9.250;2023-12-04T04:34:42;15.83;;;9.93;;
5454;SDS011;2750;49.050;9.250;2023-12-04T04:39:44;14.90;;;9.80;;
5454;SDS011;2750;49.050;9.250;2023-12-04T04:44:47;14.13;;;9.13;;
5454;SDS011;2750;49.050;9.250;2023-12-04T04:49:48;15.00;;;9.43;;
5454;SDS011;2750;49.050;9.250;2023-12-04T04:54:50;13.97;;;9.57;;
5454;SDS011;2750;49.050;9.250;2023-12-04T04:59:53;16.10;;;10.87;;
5454;SDS011;2750;49.050;9.250;2023-12-04T05:04:54;21.13;;;12.30;;
5454;SDS011;2750;49.050;9.250;2023-12-04T05:09:56;14.93;;;10.07;;
5454;SDS011;2750;49.050;9.250;2023-12-04T05:14:58;17.03;;;10.23;;
5454;SDS011;2750;49.050;9.250;2023-12-04T05:20:00;17.20;;;11.43;;
5454;SDS011;2750;49.050;9.250;2023-12-04T05:25:01;15.63;;;10.33;;
5454;SDS011;2750;49.050;9.250;2023-12-04T05:30:05;17.40;;;10.77;;
5454;SDS011;2750;49.050;9.250;2023-12-04T05:35:08;18.37;;;12.03;;
5454;SDS011;2750;49.050;9.250;2023-12-04T05:40:09;16.97;;;10.23;;
5454;SDS011;2750;49.050;9.250;2023-12-04T05:45:13;15.83;;;9.60;;
5454;SDS011;2750;49.050;9.250;2023-12-04T05:50:14;17.17;;;10.00;;
5454;SDS011;2750;49.050;9.250;2023-12-04T05:55:16;21.53;;;10.97;;
5454;SDS011;2750;49.050;9.250;2023-12-04T06:00:19;20.83;;;11.93;;
5454;SDS011;2750;49.050;9.250;2023-12-04T06:05:22;17.00;;;10.80;;
5454;SDS011;2750;49.050;9.250;2023-12-04T06:10:24;19.43;;;10.47;;
5454;SDS011;2750;49.050;9.250;2023-12-04T06:15:27;14.80;;;10.07;;
5454;SDS011;2750;49.050;9.250;2023-12-04T06:20:28;16.73;;;11.17;;
5454;SDS011;2750;49.050;9.250;2023-12-04T06:25:30;16.63;;;10.70;;
5454;SDS011;2750;49.050;9.250;2023-12-04T06:30:33;15.53;;;10.33;;
5454;SDS011;2750;49.050;9.250;2023-12-04T06:35:35;16.33;;;10.63;;
5454;SDS011;2750;49.050;9.250;2023-12-04T06:40:38;22.00;;;14.77;;
5454;SDS011;2750;49.050;9.250;2023-12-04T06:45:41;20.00;;;12.20;;
5454;SDS011;2750;49.050;9.250;2023-12-04T06:50:43;20.57;;;12.40;;
5454;SDS011;2750;49.050;9.250;2023-12-04T06:55:44;17.00;;;11.07;;
5454;SDS011;2750;49.050;9.250;2023-12-04T07:00:47;16.13;;;11.00;;
5454;SDS011;2750;49.050;9.250;2023-12-04T07:05:49;20.47;;;12.80;;
5454;SDS011;2750;49.050;9.250;2023-12-04T07:10:51;20.67;;;11.83;;
5454;SDS011;2750;49.050;9.250;2023-12-04T07:15:54;23.03;;;11.77;;
5454;SDS011;2750;49.050;9.250;2023-12-04T07:20:55;27.53;;;15.93;;
5454;SDS011;2750;49.050;9.250;2023-12-04T07:25:56;18.90;;;12.03;;
5454;SDS011;2750;49.050;9.250;2023-12-04T07:30:59;19.57;;;12.33;;
5454;SDS011;2750;49.050;9.250;2023-12-04T07:36:01;24.37;;;13.10;;
5454;SDS011;2750;49.050;9.250;2023-12-04T07:41:03;24.00;;;14.20;;
5454;SDS011;2750;49.050;9.250;2023-12-04T07:46:08;23.50;;;13.10;;
5454;SDS011;2750;49.050;9.250;2023-12-04T07:51:10;23.40;;;14.80;;
5454;SDS011;2750;49.050;9.250;2023-12-04T07:56:12;18.47;;;11.10;;
5454;SDS011;2750;49.050;9.250;2023-12-04T08:01:14;13.47;;;9.23;;
5454;SDS011;2750;49.050;9.250;2023-12-04T08:06:16;11.93;;;9.13;;
5454;SDS011;2750;49.050;9.250;2023-12-04T08:11:19;14.93;;;10.07;;
5454;SDS011;2750;49.050;9.250;2023-12-04T08:16:21;15.40;;;9.97;;
5454;SDS011;2750;49.050;9.250;2023-12-04T08:21:23;17.03;;;10.63;;
5454;SDS011;2750;49.050;9.250;2023-12-04T08:26:25;14.50;;;10.23;;
5454;SDS011;2750;49.050;9.250;2023-12-04T08:31:28;15.90;;;10.83;;
5454;SDS011;2750;49.050;9.250;2023-12-04T08:36:29;12.30;;;8.10;;
5454;SDS011;2750;49.050;9.250;2023-12-04T08:41:31;12.43;;;8.00;;
5454;SDS011;2750;49.050;9.250;2023-12-04T08:46:33;11.23;;;6.97;;
5454;SDS011;2750;49.050;9.250;2023-12-04T08:51:35;10.17;;;6.20;;
5454;SDS011;2750;49.050;9.250;2023-12-04T08:56:37;11.93;;;6.50;;
5454;SDS011;2750;49.050;9.250;2023-12-04T09:01:39;8.03;;;5.97;;
5454;SDS011;2750;49.050;9.250;2023-12-04T09:06:41;9.20;;;5.60;;
5454;SDS011;2750;49.050;9.250;2023-12-04T09:11:43;9.50;;;6.43;;
5454;SDS011;2750;49.050;9.250;2023-12-04T09:16:46;7.10;;;5.73;;
5454;SDS011;2750;49.050;9.250;2023-12-04T09:21:47;8.53;;;5.77;;
5454;SDS011;2750;49.050;9.250;2023-12-04T09:26:49;10.33;;;6.70;;
5454;SDS011;2750;49.050;9.250;2023-12-04T09:31:52;11.77;;;6.17;;
5454;SDS011;2750;49.050;9.250;2023-12-04T09:36:53;9.57;;;6.47;;
5454;SDS011;2750;49.050;9.250;2023-12-04T09:41:55;12.30;;;6.50;;
5454;SDS011;2750;49.050;9.250;2023-12-04T09:46:59;12.37;;;7.57;;
5454;SDS011;2750;49.050;9.250;2023-12-04T09:52:03;10.90;;;7.03;;
5454;SDS011;2750;49.050;9.250;2023-12-04T09:57:05;7.73;;;6.80;;
5454;SDS011;2750;49.050;9.250;2023-12-04T10:02:08;10.23;;;7.00;;
5454;SDS011;2750;49.050;9.250;2023-12-04T10:07:09;10.33;;;6.57;;
5454;SDS011;2750;49.050;9.250;2023-12-04T10:12:11;11.10;;;7.20;;
5454;SDS011;2750;49.050;9.250;2023-12-04T10:17:15;11.43;;;6.60;;
5454;SDS011;2750;49.050;9.250;2023-12-04T10:22:17;9.37;;;7.33;;
5454;SDS011;2750;49.050;9.250;2023-12-04T10:27:19;11.33;;;7.67;;
5454;SDS011;2750;49.050;9.250;2023-12-04T10:32:28;13.13;;;7.77;;
5454;SDS011;2750;49.050;9.250;2023-12-04T10:37:30;9.83;;;7.50;;
5454;SDS011;2750;49.050;9.250;2023-12-04T10:42:31;12.83;;;8.90;;
5454;SDS011;2750;49.050;9.250;2023-12-04T10:47:35;9.93;;;7.07;;
5454;SDS011;2750;49.050;9.250;2023-12-04T10:52:37;10.87;;;7.87;;
5454;SDS011;2750;49.050;9.250;2023-12-04T10:57:41;9.53;;;7.37;;
5454;SDS011;2750;49.050;9.250;2023-12-04T11:02:48;12.50;;;7.93;;
5454;SDS011;2750;49.050;9.250;2023-12-04T11:07:56;9.63;;;7.67;;
5454;SDS011;2750;49.050;9.250;2023-12-04T11:13:00;12.10;;;8.53;;
5454;SDS011;2750;49.050;9.250;2023-12-04T11:18:07;11.77;;;8.07;;
5454;SDS011;2750;49.050;9.250;2023-12-04T11:23:12;12.80;;;7.23;;
5454;SDS011;2750;49.050;9.250;2023-12-04T11:28:15;13.23;;;8.27;;
5454;SDS011;2750;49.050;9.250;2023-12-04T11:33:19;11.60;;;8.67;;
5454;SDS011;2750;49.050;9.250;2023-12-04T11:38:21;11.00;;;7.47;;
5454;SDS011;2750;49.050;9.250;2023-12-04T11:43:24;12.63;;;8.67;;
5454;SDS011;2750;49.050;9.250;2023-12-04T11:48:28;8.87;;;6.73;;
5454;SDS011;2750;49.050;9.250;2023-12-04T11:53:30;9.70;;;7.03;;
5454;SDS011;2750;49.050;9.250;2023-12-04T11:58:32;10.10;;;7.67;;
5454;SDS011;2750;49.050;9.250;2023-12-04T12:03:43;10.37;;;7.90;;
5454;SDS011;2750;49.050;9.250;2023-12-04T12:08:45;11.67;;;8.07;;
5454;SDS011;2750;49.050;9.250;2023-12-04T12:13:48;9.33;;;7.87;;
5454;SDS011;2750;49.050;9.250;2023-12-04T12:18:51;9.73;;;7.73;;
5454;SDS011;2750;49.050;9.250;2023-12-04T12:23:52;10.67;;;7.20;;
5454;SDS011;2750;49.050;9.250;2023-12-04T12:28:55;8.23;;;7.10;;
5454;SDS011;2750;49.050;9.250;2023-12-04T12:33:58;12.93;;;9.43;;
5454;SDS011;2750;49.050;9.250;2023-12-04T12:39:00;14.20;;;9.80;;
5454;SDS011;2750;49.050;9.250;2023-12-04T12:44:03;14.73;;;10.17;;
5454;SDS011;2750;49.050;9.250;2023-12-04T12:49:07;17.50;;;10.80;;
5454;SDS011;2750;49.050;9.250;2023-12-04T12:54:08;15.17;;;10.57;;
5454;SDS011;2750;49.050;9.250;2023-12-04T12:59:10;14.80;;;11.00;;
5454;SDS011;2750;49.050;9.250;2023-12-04T13:04:14;13.90;;;10.73;;
5454;SDS011;2750;49.050;9.250;2023-12-04T13:09:16;15.43;;;11.80;;
5454;SDS011;2750;49.050;9.250;2023-12-04T13:14:18;16.87;;;10.67;;
5454;SDS011;2750;49.050;9.250;2023-12-04T13:19:21;17.93;;;12.80;;
5454;SDS011;2750;49.050;9.250;2023-12-04T13:24:23;20.57;;;13.93;;
5454;SDS011;2750;49.050;9.250;2023-12-04T13:29:25;21.57;;;15.10;;
5454;SDS011;2750;49.050;9.250;2023-12-04T13:34:28;23.83;;;14.87;;
5454;SDS011;2750;49.050;9.250;2023-12-04T13:39:29;26.03;;;17.33;;
5454;SDS011;2750;49.050;9.250;2023-12-04T13:44:47;23.10;;;14.17;;
5454;SDS011;2750;49.050;9.250;2023-12-04T13:49:50;21.37;;;14.27;;
5454;SDS011;2750;49.050;9.250;2023-12-04T13:54:51;23.23;;;15.73;;
5454;SDS011;2750;49.050;9.250;2023-12-04T13:59:54;26.87;;;15.67;;
5454;SDS011;2750;49.050;9.250;2023-12-04T14:04:58;13.57;;;9.77;;
5454;SDS011;2750;49.050;9.250;2023-12-04T14:10:00;15.73;;;9.70;;
5454;SDS011;2750;49.050;9.250;2023-12-04T14:15:01;16.80;;;11.17;;
5454;SDS011;2750;49.050;9.250;2023-12-04T14:20:05;16.27;;;9.63;;
5454;SDS011;2750;49.050;9.250;2023-12-04T14:25:12;14.10;;;9.77;;
5454;SDS011;2750;49.050;9.250;2023-12-04T14:30:14;14.00;;;10.07;;
5454;SDS011;2750;49.050;9.250;2023-12-04T14:35:17;14.97;;;9.67;;
5454;SDS011;2750;49.050;9.250;2023-12-04T14:40:19;13.53;;;10.40;;
5454;SDS011;2750;49.050;9.250;2023-12-04T14:45:21;13.23;;;10.60;;
5454;SDS011;2750;49.050;9.250;2023-12-04T14:50:24;16.23;;;11.23;;
5454;SDS011;2750;49.050;9.250;2023-12-04T14:55:25;15.27;;;11.40;;
5454;SDS011;2750;49.050;9.250;2023-12-04T15:00:56;13.83;;;10.40;;
5454;SDS011;2750;49.050;9.250;2023-12-04T15:06:45;17.00;;;10.93;;
5454;SDS011;2750;49.050;9.250;2023-12-04T15:12:15;11.97;;;10.07;;
5454;SDS011;2750;49.050;9.250;2023-12-04T15:17:26;13.93;;;10.13;;
5454;SDS011;2750;49.050;9.250;2023-12-04T15:22:35;13.90;;;10.43;;
5454;SDS011;2750;49.050;9.250;2023-12-04T15:27:36;16.10;;;11.00;;
5454;SDS011;2750;49.050;9.250;2023-12-04T15:32:38;14.07;;;10.03;;
5454;SDS011;2750;49.050;9.250;2023-12-04T15:37:41;15.33;;;11.00;;
5454;SDS011;2750;49.050;9.250;2023-12-04T15:42:42;17.30;;;11.33;;
5454;SDS011;2750;49.050;9.250;2023-12-04T15:47:44;18.87;;;12.27;;
5454;SDS011;2750;49.050;9.250;2023-12-04T15:52:47;15.63;;;10.97;;
5454;SDS011;2750;49.050;9.250;2023-12-04T15:57:49;18.33;;;12.73;;
5454;SDS011;2750;49.050;9.250;2023-12-04T16:02:54;17.80;;;11.30;;
5454;SDS011;2750;49.050;9.250;2023-12-04T16:07:57;22.50;;;14.43;;
5454;SDS011;2750;49.050;9.250;2023-12-04T16:13:00;29.40;;;19.00;;
5454;SDS011;2750;49.050;9.250;2023-12-04T16:18:01;23.17;;;15.57;;
5454;SDS011;2750;49.050;9.250;2023-12-04T16:23:04;23.53;;;16.83;;
5454;SDS011;2750;49.050;9.250;2023-12-04T16:28:06;22.80;;;17.27;;
5454;SDS011;2750;49.050;9.250;2023-12-04T16:33:10;31.13;;;20.50;;
5454;SDS011;2750;49.050;9.250;2023-12-04T16:38:14;21.53;;;14.03;;
5454;SDS011;2750;49.050;9.250;2023-12-04T16:43:15;22.73;;;15.13;;
5454;SDS011;2750;49.050;9.250;2023-12-04T16:48:17;29.73;;;19.47;;
5454;SDS011;2750;49.050;9.250;2023-12-04T16:53:19;27.10;;;18.27;;
5454;SDS011;2750;49.050;9.250;2023-12-04T16:58:21;27.30;;;19.37;;
5454;SDS011;2750;49.050;9.250;2023-12-04T17:03:22;30.93;;;16.10;;
5454;SDS011;2750;49.050;9.250;2023-12-04T17:08:25;16.27;;;11.67;;
5454;SDS011;2750;49.050;9.250;2023-12-04T17:13:27;18.23;;;11.70;;
5454;SDS011;2750;49.050;9.250;2023-12-04T17:18:28;18.43;;;13.27;;
5454;SDS011;2750;49.050;9.250;2023-12-04T17:23:31;19.43;;;12.73;;
5454;SDS011;2750;49.050;9.250;2023-12-04T17:28:33;17.00;;;11.33;;
5454;SDS011;2750;49.050;9.250;2023-12-04T17:33:35;21.00;;;13.43;;
5454;SDS011;2750;49.050;9.250;2023-12-04T17:38:37;16.93;;;11.57;;
5454;SDS011;2750;49.050;9.250;2023-12-04T17:43:41;14.83;;;11.93;;
5454;SDS011;2750;49.050;9.250;2023-12-04T17:48:42;18.80;;;12.23;;
5454;SDS011;2750;49.050;9.250;2023-12-04T17:53:46;18.50;;;12.90;;
5454;SDS011;2750;49.050;9.250;2023-12-04T17:58:48;18.33;;;12.30;;
5454;SDS011;2750;49.050;9.250;2023-12-04T18:03:49;18.93;;;12.50;;
5454;SDS011;2750;49.050;9.250;2023-12-04T18:08:52;17.60;;;12.40;;
5454;SDS011;2750;49.050;9.250;2023-12-04T18:13:54;17.03;;;12.53;;
5454;SDS011;2750;49.050;9.250;2023-12-04T18:18:55;16.67;;;12.07;;
5454;SDS011;2750;49.050;9.250;2023-12-04T18:23:59;17.97;;;12.67;;
5454;SDS011;2750;49.050;9.250;2023-12-04T18:29:01;21.33;;;13.50;;
5454;SDS011;2750;49.050;9.250;2023-12-04T18:34:02;18.93;;;12.73;;
5454;SDS011;2750;49.050;9.250;2023-12-04T18:39:05;17.27;;;11.60;;
5454;SDS011;2750;49.050;9.250;2023-12-04T18:44:08;18.90;;;12.23;;
5454;SDS011;2750;49.050;9.250;2023-12-04T18:49:10;15.63;;;10.63;;
5454;SDS011;2750;49.050;9.250;2023-12-04T18:54:14;17.63;;;10.70;;
5454;SDS011;2750;49.050;9.250;2023-12-04T18:59:16;17.03;;;10.67;;
5454;SDS011;2750;49.050;9.250;2023-12-04T19:04:17;19.57;;;11.00;;
5454;SDS011;2750;49.050;9.250;2023-12-04T19:09:20;16.43;;;10.77;;
5454;SDS011;2750;49.050;9.250;2023-12-04T19:14:22;16.87;;;10.60;;
5454;SDS011;2750;49.050;9.250;2023-12-04T19:19:23;15.67;;;10.27;;
5454;SDS011;2750;49.050;9.250;2023-12-04T19:24:26;15.37;;;10.77;;
5454;SDS011;2750;49.050;9.250;2023-12-04T19:29:27;19.83;;;10.30;;
5454;SDS011;2750;49.050;9.250;2023-12-04T19:34:29;16.07;;;10.17;;
5454;SDS011;2750;49.050;9.250;2023-12-04T19:39:32;16.27;;;10.60;;
5454;SDS011;2750;49.050;9.250;2023-12-04T19:44:42;14.30;;;9.90;;
5454;SDS011;2750;49.050;9.250;2023-12-04T19:49:44;15.73;;;9.77;;
5454;SDS011;2750;49.050;9.250;2023-12-04T19:54:47;13.53;;;9.67;;
5454;SDS011;2750;49.050;9.250;2023-12-04T19:59:48;13.73;;;10.30;;
5454;SDS011;2750;49.050;9.250;2023-12-04T20:04:51;18.23;;;10.03;;
5454;SDS011;2750;49.050;9.250;2023-12-04T20:09:54;14.73;;;9.80;;
5454;SDS011;2750;49.050;9.250;2023-12-04T20:14:55;13.57;;;9.60;;
5454;SDS011;2750;49.050;9.250;2023-12-04T20:19:57;12.50;;;9.23;;
5454;SDS011;2750;49.050;9.250;2023-12-04T20:24:59;14.27;;;9.37;;
5454;SDS011;2750;49.050;9.250;2023-12-04T20:30:02;10.70;;;8.87;;
5454;SDS011;2750;49.050;9.250;2023-12-04T20:35:04;13.90;;;9.43;;
5454;SDS011;2750;49.050;9.250;2023-12-04T20:40:08;37.33;;;20.03;;
5454;SDS011;2750;49.050;9.250;2023-12-04T20:45:10;27.10;;;16.57;;
5454;SDS011;2750;49.050;9.250;2023-12-04T20:50:12;14.50;;;10.10;;
5454;SDS011;2750;49.050;9.250;2023-12-04T20:55:15;14.93;;;9.67;;
5454;SDS011;2750;49.050;9.250;2023-12-04T21:00:17;14.53;;;9.37;;
5454;SDS011;2750;49.050;9.250;2023-12-04T21:05:19;12.00;;;9.03;;
5454;SDS011;2750;49.050;9.250;2023-12-04T21:10:23;14.40;;;10.07;;
5454;SDS011;2750;49.050;9.250;2023-12-04T21:15:25;13.50;;;9.33;;
5454;SDS011;2750;49.050;9.250;2023-12-04T21:20:27;13.60;;;9.50;;
5454;SDS011;2750;49.050;9.250;2023-12-04T21:25:30;15.57;;;9.60;;
5454;SDS011;2750;49.050;9.250;2023-12-04T21:30:31;16.40;;;9.97;;
5454;SDS011;2750;49.050;9.250;2023-12-04T21:35:33;16.77;;;9.73;;
5454;SDS011;2750;49.050;9.250;2023-12-04T21:40:36;17.97;;;10.20;;
5454;SDS011;2750;49.050;9.250;2023-12-04T21:45:37;14.60;;;10.13;;
5454;SDS011;2750;49.050;9.250;2023-12-04T21:50:39;16.17;;;10.50;;
5454;SDS011;2750;49.050;9.250;2023-12-04T21:55:41;13.27;;;9.70;;
5454;SDS011;2750;49.050;9.250;2023-12-04T22:00:43;13.63;;;9.33;;
5454;SDS011;2750;49.050;9.250;2023-12-04T22:05:44;14.90;;;9.27;;
5454;SDS011;2750;49.050;9.250;2023-12-04T22:10:47;13.67;;;9.27;;
5454;SDS011;2750;49.050;9.250;2023-12-04T22:15:49;13.37;;;8.87;;
5454;SDS011;2750;49.050;9.250;2023-12-04T22:20:50;11.27;;;7.53;;
5454;SDS011;2750;49.050;9.250;2023-12-04T22:25:53;13.00;;;9.00;;
5454;SDS011;2750;49.050;9.250;2023-12-04T22:30:55;15.60;;;9.80;;
5454;SDS011;2750;49.050;9.250;2023-12-04T22:35:57;13.03;;;9.57;;
5454;SDS011;2750;49.050;9.250;2023-12-04T22:41:00;14.07;;;9.47;;
5454;SDS011;2750;49.050;9.250;2023-12-04T22:46:02;13.47;;;8.73;;
5454;SDS011;2750;49.050;9.250;2023-12-04T22:51:04;14.07;;;9.27;;
5454;SDS011;2750;49.050;9.250;2023-12-04T22:56:08;11.20;;;8.17;;
5454;SDS011;2750;49.050;9.250;2023-12-04T23:01:11;14.43;;;9.27;;
5454;SDS011;2750;49.050;9.250;2023-12-04T23:06:12;13.73;;;9.40;;
5454;SDS011;2750;49.050;9.250;2023-12-04T23:11:15;11.90;;;8.30;;
5454;SDS011;2750;49.050;9.250;2023-12-04T23:16:16;13.30;;;9.03;;
5454;SDS011;2750;49.050;9.250;2023-12-04T23:21:18;12.37;;;7.63;;
5454;SDS011;2750;49.050;9.250;2023-12-04T23:26:21;10.93;;;8.43;;
5454;SDS011;2750;49.050;9.250;2023-12-04T23:31:23;11.63;;;8.47;;
5454;SDS011;2750;49.050;9.250;2023-12-04T23:36:24;12.50;;;8.63;;
5454;SDS011;2750;49.050;9.250;2023-12-04T23:41:27;13.03;;;8.67;;
5454;SDS011;2750;49.050;9.250;2023-12-04T23:46:29;13.07;;;7.70;;
5454;SDS011;2750;49.050;9.250;2023-12-04T23:51:30;10.50;;;7.73;;
5454;SDS011;2750;49.050;9.250;2023-12-04T23:56:35;12.60;;;9.43;;
